sensor_id;sensor_type;location;lat;lon;timestamp;temperature;humidity
19348;DHT22;9810;52.480;9.806;2023-08-24T00:00:03;15.80;99.90
19348;DHT22;9810;52.480;9.806;2023-08-24T00:02:31;15.70;99.90
19348;DHT22;9810;52.480;9.806;2023-08-24T00:04:58;15.60;99.90
19348;DHT22;9810;52.480;9.806;2023-08-24T00:07:26;15.50;99.90
19348;DHT22;9810;52.480;9.806;2023-08-24T00:09:53;15.50;99.90
19348;DHT22;9810;52.480;9.806;2023-08-24T00:12:22;15.50;99.90
19348;DHT22;9810;52.480;9.806;2023-08-24T00:14:49;15.40;99.90
19348;DHT22;9810;52.480;9.806;2023-08-24T00:17:16;15.40;99.90
19348;DHT22;9810;52.480;9.806;2023-08-24T00:19:43;15.40;99.90
19348;DHT22;9810;52.480;9.806;2023-08-24T00:22:11;15.50;99.90
19348;DHT22;9810;52.480;9.806;2023-08-24T00:24:41;15.50;99.90
19348;DHT22;9810;52.480;9.806;2023-08-24T00:27:08;15.50;99.90
19348;DHT22;9810;52.480;9.806;2023-08-24T00:29:37;15.50;99.90
19348;DHT22;9810;52.480;9.806;2023-08-24T00:32:06;15.40;99.90
19348;DHT22;9810;52.480;9.806;2023-08-24T00:34:33;15.40;99.90
19348;DHT22;9810;52.480;9.806;2023-08-24T00:37:00;15.50;99.90
19348;DHT22;9810;52.480;9.806;2023-08-24T00:39:27;15.30;99.90
19348;DHT22;9810;52.480;9.806;2023-08-24T00:41:56;15.40;99.90
19348;DHT22;9810;52.480;9.806;2023-08-24T00:44:23;15.30;99.90
19348;DHT22;9810;52.480;9.806;2023-08-24T00:46:52;15.20;99.90
19348;DHT22;9810;52.480;9.806;2023-08-24T00:49:21;15.30;99.90
19348;DHT22;9810;52.480;9.806;2023-08-24T00:51:48;15.20;99.90
19348;DHT22;9810;52.480;9.806;2023-08-24T00:54:15;15.10;99.90
19348;DHT22;9810;52.480;9.806;2023-08-24T00:56:43;15.20;99.90
19348;DHT22;9810;52.480;9.806;2023-08-24T00:59:10;15.00;99.90
19348;DHT22;9810;52.480;9.806;2023-08-24T01:01:39;15.00;99.90
19348;DHT22;9810;52.480;9.806;2023-08-24T01:04:08;14.90;99.90
19348;DHT22;9810;52.480;9.806;2023-08-24T01:06:39;14.90;99.90
19348;DHT22;9810;52.480;9.806;2023-08-24T01:09:06;14.90;99.90
19348;DHT22;9810;52.480;9.806;2023-08-24T01:11:45;14.90;99.90
19348;DHT22;9810;52.480;9.806;2023-08-24T01:14:35;14.90;99.90
19348;DHT22;9810;52.480;9.806;2023-08-24T01:17:06;14.90;99.90
19348;DHT22;9810;52.480;9.806;2023-08-24T01:19:42;15.00;99.90
19348;DHT22;9810;52.480;9.806;2023-08-24T01:22:23;14.80;99.90
19348;DHT22;9810;52.480;9.806;2023-08-24T01:25:04;15.00;99.90
19348;DHT22;9810;52.480;9.806;2023-08-24T01:27:34;14.80;99.90
19348;DHT22;9810;52.480;9.806;2023-08-24T01:30:02;14.80;99.90
19348;DHT22;9810;52.480;9.806;2023-08-24T01:32:30;14.80;99.90
19348;DHT22;9810;52.480;9.806;2023-08-24T01:34:57;14.70;99.90
19348;DHT22;9810;52.480;9.806;2023-08-24T01:37:26;14.70;99.90
19348;DHT22;9810;52.480;9.806;2023-08-24T01:40:00;14.50;99.90
19348;DHT22;9810;52.480;9.806;2023-08-24T01:42:33;14.50;99.90
19348;DHT22;9810;52.480;9.806;2023-08-24T01:45:06;14.60;99.90
19348;DHT22;9810;52.480;9.806;2023-08-24T01:47:35;14.60;99.90
19348;DHT22;9810;52.480;9.806;2023-08-24T01:50:04;14.50;99.90
19348;DHT22;9810;52.480;9.806;2023-08-24T01:52:35;14.50;99.90
19348;DHT22;9810;52.480;9.806;2023-08-24T01:55:03;14.60;99.90
19348;DHT22;9810;52.480;9.806;2023-08-24T01:57:30;14.60;99.90
19348;DHT22;9810;52.480;9.806;2023-08-24T02:00:05;14.50;99.90
19348;DHT22;9810;52.480;9.806;2023-08-24T02:02:35;14.40;99.90
19348;DHT22;9810;52.480;9.806;2023-08-24T02:05:02;14.30;99.90
19348;DHT22;9810;52.480;9.806;2023-08-24T02:07:30;14.30;99.90
19348;DHT22;9810;52.480;9.806;2023-08-24T02:09:57;14.40;99.90
19348;DHT22;9810;52.480;9.806;2023-08-24T02:12:24;14.30;99.90
19348;DHT22;9810;52.480;9.806;2023-08-24T02:14:51;14.30;99.90
19348;DHT22;9810;52.480;9.806;2023-08-24T02:17:19;14.20;99.90
19348;DHT22;9810;52.480;9.806;2023-08-24T02:19:48;14.30;99.90
19348;DHT22;9810;52.480;9.806;2023-08-24T02:22:16;14.30;99.90
19348;DHT22;9810;52.480;9.806;2023-08-24T02:24:43;14.20;99.90
19348;DHT22;9810;52.480;9.806;2023-08-24T02:27:10;14.10;99.90
19348;DHT22;9810;52.480;9.806;2023-08-24T02:29:37;14.10;99.90
19348;DHT22;9810;52.480;9.806;2023-08-24T02:32:05;14.00;99.90
19348;DHT22;9810;52.480;9.806;2023-08-24T02:34:33;14.00;99.90
19348;DHT22;9810;52.480;9.806;2023-08-24T02:37:02;14.00;99.90
19348;DHT22;9810;52.480;9.806;2023-08-24T02:39:29;14.00;99.90
19348;DHT22;9810;52.480;9.806;2023-08-24T02:41:56;14.00;99.90
19348;DHT22;9810;52.480;9.806;2023-08-24T02:44:23;14.00;99.90
19348;DHT22;9810;52.480;9.806;2023-08-24T02:46:50;14.00;99.90
19348;DHT22;9810;52.480;9.806;2023-08-24T02:49:17;13.90;99.90
19348;DHT22;9810;52.480;9.806;2023-08-24T02:51:46;13.90;99.90
19348;DHT22;9810;52.480;9.806;2023-08-24T02:54:13;13.90;99.90
19348;DHT22;9810;52.480;9.806;2023-08-24T02:56:40;13.90;99.90
19348;DHT22;9810;52.480;9.806;2023-08-24T02:59:07;14.00;99.90
19348;DHT22;9810;52.480;9.806;2023-08-24T03:01:34;13.90;99.90
19348;DHT22;9810;52.480;9.806;2023-08-24T03:04:04;13.90;99.90
19348;DHT22;9810;52.480;9.806;2023-08-24T03:06:31;13.90;99.90
19348;DHT22;9810;52.480;9.806;2023-08-24T03:09:00;13.90;99.90
19348;DHT22;9810;52.480;9.806;2023-08-24T03:11:29;13.90;99.90
19348;DHT22;9810;52.480;9.806;2023-08-24T03:13:56;13.90;99.90
19348;DHT22;9810;52.480;9.806;2023-08-24T03:16:23;13.90;99.90
19348;DHT22;9810;52.480;9.806;2023-08-24T03:18:50;13.90;99.90
19348;DHT22;9810;52.480;9.806;2023-08-24T03:21:17;13.90;99.90
19348;DHT22;9810;52.480;9.806;2023-08-24T03:23:44;13.90;99.90
19348;DHT22;9810;52.480;9.806;2023-08-24T03:26:16;13.90;99.90
19348;DHT22;9810;52.480;9.806;2023-08-24T03:28:45;13.90;99.90
19348;DHT22;9810;52.480;9.806;2023-08-24T03:31:15;13.90;99.90
19348;DHT22;9810;52.480;9.806;2023-08-24T03:33:47;13.80;99.90
19348;DHT22;9810;52.480;9.806;2023-08-24T03:36:14;13.70;99.90
19348;DHT22;9810;52.480;9.806;2023-08-24T03:38:44;13.60;99.90
19348;DHT22;9810;52.480;9.806;2023-08-24T03:41:13;13.50;99.90
19348;DHT22;9810;52.480;9.806;2023-08-24T03:43:42;13.40;99.90
19348;DHT22;9810;52.480;9.806;2023-08-24T03:46:11;13.40;99.90
19348;DHT22;9810;52.480;9.806;2023-08-24T03:48:41;13.30;99.90
19348;DHT22;9810;52.480;9.806;2023-08-24T03:51:08;13.40;99.90
19348;DHT22;9810;52.480;9.806;2023-08-24T03:53:35;13.30;99.90
19348;DHT22;9810;52.480;9.806;2023-08-24T03:56:03;13.20;99.90
19348;DHT22;9810;52.480;9.806;2023-08-24T03:58:30;13.40;99.90
19348;DHT22;9810;52.480;9.806;2023-08-24T04:00:58;13.30;99.90
19348;DHT22;9810;52.480;9.806;2023-08-24T04:03:25;13.30;99.90
19348;DHT22;9810;52.480;9.806;2023-08-24T04:05:52;13.30;99.90
19348;DHT22;9810;52.480;9.806;2023-08-24T04:08:19;13.30;99.90
19348;DHT22;9810;52.480;9.806;2023-08-24T04:10:46;13.30;99.90
19348;DHT22;9810;52.480;9.806;2023-08-24T04:13:13;13.40;99.90
19348;DHT22;9810;52.480;9.806;2023-08-24T04:15:40;13.40;99.90
19348;DHT22;9810;52.480;9.806;2023-08-24T04:18:09;13.50;99.90
19348;DHT22;9810;52.480;9.806;2023-08-24T04:20:38;13.50;99.90
19348;DHT22;9810;52.480;9.806;2023-08-24T04:23:05;13.50;99.90
19348;DHT22;9810;52.480;9.806;2023-08-24T04:25:32;13.40;99.90
19348;DHT22;9810;52.480;9.806;2023-08-24T04:28:01;13.30;99.90
19348;DHT22;9810;52.480;9.806;2023-08-24T04:30:28;13.30;99.90
19348;DHT22;9810;52.480;9.806;2023-08-24T04:32:55;13.40;99.90
19348;DHT22;9810;52.480;9.806;2023-08-24T04:35:25;13.40;99.90
19348;DHT22;9810;52.480;9.806;2023-08-24T04:37:52;13.50;99.90
19348;DHT22;9810;52.480;9.806;2023-08-24T04:40:20;13.60;99.90
19348;DHT22;9810;52.480;9.806;2023-08-24T04:42:47;13.60;99.90
19348;DHT22;9810;52.480;9.806;2023-08-24T04:45:14;13.70;99.90
19348;DHT22;9810;52.480;9.806;2023-08-24T04:47:41;13.80;99.90
19348;DHT22;9810;52.480;9.806;2023-08-24T04:50:11;13.80;99.90
19348;DHT22;9810;52.480;9.806;2023-08-24T04:52:42;13.80;99.90
19348;DHT22;9810;52.480;9.806;2023-08-24T04:55:09;14.00;99.90
19348;DHT22;9810;52.480;9.806;2023-08-24T04:57:36;14.40;99.90
19348;DHT22;9810;52.480;9.806;2023-08-24T05:00:04;14.50;99.90
19348;DHT22;9810;52.480;9.806;2023-08-24T05:02:32;14.70;99.90
19348;DHT22;9810;52.480;9.806;2023-08-24T05:05:00;14.90;99.90
19348;DHT22;9810;52.480;9.806;2023-08-24T05:07:27;15.00;99.90
19348;DHT22;9810;52.480;9.806;2023-08-24T05:10:00;15.00;99.90
19348;DHT22;9810;52.480;9.806;2023-08-24T05:12:27;15.00;99.90
19348;DHT22;9810;52.480;9.806;2023-08-24T05:14:55;15.00;99.90
19348;DHT22;9810;52.480;9.806;2023-08-24T05:17:23;15.10;99.90
19348;DHT22;9810;52.480;9.806;2023-08-24T05:19:55;15.10;99.90
19348;DHT22;9810;52.480;9.806;2023-08-24T05:22:22;15.10;99.90
19348;DHT22;9810;52.480;9.806;2023-08-24T05:24:51;15.20;99.90
19348;DHT22;9810;52.480;9.806;2023-08-24T05:27:22;15.20;99.90
19348;DHT22;9810;52.480;9.806;2023-08-24T05:29:49;15.20;99.90
19348;DHT22;9810;52.480;9.806;2023-08-24T05:32:16;15.30;99.90
19348;DHT22;9810;52.480;9.806;2023-08-24T05:34:43;15.30;99.90
19348;DHT22;9810;52.480;9.806;2023-08-24T05:37:13;15.40;99.90
19348;DHT22;9810;52.480;9.806;2023-08-24T05:39:47;15.40;99.90
19348;DHT22;9810;52.480;9.806;2023-08-24T05:42:14;15.40;99.90
19348;DHT22;9810;52.480;9.806;2023-08-24T05:44:43;15.40;99.90
19348;DHT22;9810;52.480;9.806;2023-08-24T05:47:10;15.50;99.90
19348;DHT22;9810;52.480;9.806;2023-08-24T05:49:37;15.50;99.90
19348;DHT22;9810;52.480;9.806;2023-08-24T05:52:04;15.60;99.90
19348;DHT22;9810;52.480;9.806;2023-08-24T05:54:31;15.60;99.90
19348;DHT22;9810;52.480;9.806;2023-08-24T05:56:58;15.60;99.90
19348;DHT22;9810;52.480;9.806;2023-08-24T05:59:26;15.60;99.90
19348;DHT22;9810;52.480;9.806;2023-08-24T06:01:56;15.70;99.90
19348;DHT22;9810;52.480;9.806;2023-08-24T06:04:23;15.70;99.90
19348;DHT22;9810;52.480;9.806;2023-08-24T06:06:51;15.70;99.90
19348;DHT22;9810;52.480;9.806;2023-08-24T06:09:18;15.80;99.90
19348;DHT22;9810;52.480;9.806;2023-08-24T06:11:45;15.80;99.90
19348;DHT22;9810;52.480;9.806;2023-08-24T06:14:15;15.90;99.90
19348;DHT22;9810;52.480;9.806;2023-08-24T06:16:42;15.90;99.90
19348;DHT22;9810;52.480;9.806;2023-08-24T06:19:11;15.90;99.90
19348;DHT22;9810;52.480;9.806;2023-08-24T06:21:38;16.10;99.90
19348;DHT22;9810;52.480;9.806;2023-08-24T06:24:05;16.10;99.90
19348;DHT22;9810;52.480;9.806;2023-08-24T06:26:32;16.20;99.90
19348;DHT22;9810;52.480;9.806;2023-08-24T06:29:03;16.20;99.90
19348;DHT22;9810;52.480;9.806;2023-08-24T06:31:30;16.20;99.90
19348;DHT22;9810;52.480;9.806;2023-08-24T06:34:00;16.30;99.90
19348;DHT22;9810;52.480;9.806;2023-08-24T06:36:29;16.50;99.90
19348;DHT22;9810;52.480;9.806;2023-08-24T06:38:56;16.60;99.90
19348;DHT22;9810;52.480;9.806;2023-08-24T06:41:24;16.80;99.90
19348;DHT22;9810;52.480;9.806;2023-08-24T06:43:51;16.90;99.90
19348;DHT22;9810;52.480;9.806;2023-08-24T06:46:24;16.80;99.90
19348;DHT22;9810;52.480;9.806;2023-08-24T06:48:51;17.00;99.90
19348;DHT22;9810;52.480;9.806;2023-08-24T06:51:18;17.10;99.90
19348;DHT22;9810;52.480;9.806;2023-08-24T06:53:47;17.00;99.90
19348;DHT22;9810;52.480;9.806;2023-08-24T06:56:14;17.10;99.90
19348;DHT22;9810;52.480;9.806;2023-08-24T06:58:43;17.20;99.90
19348;DHT22;9810;52.480;9.806;2023-08-24T07:01:10;17.30;99.90
19348;DHT22;9810;52.480;9.806;2023-08-24T07:03:38;17.50;99.90
19348;DHT22;9810;52.480;9.806;2023-08-24T07:06:05;17.60;99.90
19348;DHT22;9810;52.480;9.806;2023-08-24T07:08:33;17.60;99.90
19348;DHT22;9810;52.480;9.806;2023-08-24T07:11:02;17.70;99.90
19348;DHT22;9810;52.480;9.806;2023-08-24T07:13:29;17.90;99.90
19348;DHT22;9810;52.480;9.806;2023-08-24T07:15:56;17.90;99.90
19348;DHT22;9810;52.480;9.806;2023-08-24T07:18:31;18.10;99.90
19348;DHT22;9810;52.480;9.806;2023-08-24T07:21:01;18.40;99.90
19348;DHT22;9810;52.480;9.806;2023-08-24T07:23:28;18.50;99.90
19348;DHT22;9810;52.480;9.806;2023-08-24T07:25:55;18.70;99.90
19348;DHT22;9810;52.480;9.806;2023-08-24T07:28:24;18.90;99.90
19348;DHT22;9810;52.480;9.806;2023-08-24T07:30:51;18.90;99.90
19348;DHT22;9810;52.480;9.806;2023-08-24T07:33:24;19.10;99.90
19348;DHT22;9810;52.480;9.806;2023-08-24T07:35:52;19.30;99.90
19348;DHT22;9810;52.480;9.806;2023-08-24T07:38:19;19.40;99.90
19348;DHT22;9810;52.480;9.806;2023-08-24T07:40:46;19.30;99.90
19348;DHT22;9810;52.480;9.806;2023-08-24T07:43:13;19.10;99.90
19348;DHT22;9810;52.480;9.806;2023-08-24T07:45:43;19.10;99.90
19348;DHT22;9810;52.480;9.806;2023-08-24T07:48:10;19.40;99.90
19348;DHT22;9810;52.480;9.806;2023-08-24T07:50:36;20.40;99.90
19348;DHT22;9810;52.480;9.806;2023-08-24T07:53:03;20.70;99.90
19348;DHT22;9810;52.480;9.806;2023-08-24T07:55:31;21.20;99.90
19348;DHT22;9810;52.480;9.806;2023-08-24T07:57:58;21.60;99.90
19348;DHT22;9810;52.480;9.806;2023-08-24T08:00:26;22.70;99.90
19348;DHT22;9810;52.480;9.806;2023-08-24T08:02:55;23.40;99.90
19348;DHT22;9810;52.480;9.806;2023-08-24T08:05:22;23.70;99.90
19348;DHT22;9810;52.480;9.806;2023-08-24T08:07:49;23.10;99.90
19348;DHT22;9810;52.480;9.806;2023-08-24T08:10:16;23.80;99.90
19348;DHT22;9810;52.480;9.806;2023-08-24T08:12:46;24.40;99.90
19348;DHT22;9810;52.480;9.806;2023-08-24T08:15:13;24.70;99.90
19348;DHT22;9810;52.480;9.806;2023-08-24T08:17:40;25.20;99.90
19348;DHT22;9810;52.480;9.806;2023-08-24T08:20:10;25.30;99.90
19348;DHT22;9810;52.480;9.806;2023-08-24T08:22:38;25.50;99.90
19348;DHT22;9810;52.480;9.806;2023-08-24T08:25:05;25.20;99.90
19348;DHT22;9810;52.480;9.806;2023-08-24T08:27:33;25.60;99.90
19348;DHT22;9810;52.480;9.806;2023-08-24T08:30:02;26.20;99.90
19348;DHT22;9810;52.480;9.806;2023-08-24T08:32:30;26.30;99.90
19348;DHT22;9810;52.480;9.806;2023-08-24T08:35:00;26.60;99.90
19348;DHT22;9810;52.480;9.806;2023-08-24T08:37:34;26.50;99.90
19348;DHT22;9810;52.480;9.806;2023-08-24T08:40:02;26.60;99.90
19348;DHT22;9810;52.480;9.806;2023-08-24T08:42:31;27.00;99.90
19348;DHT22;9810;52.480;9.806;2023-08-24T08:45:07;27.30;99.90
19348;DHT22;9810;52.480;9.806;2023-08-24T08:47:35;27.50;99.90
19348;DHT22;9810;52.480;9.806;2023-08-24T08:50:03;27.00;99.90
19348;DHT22;9810;52.480;9.806;2023-08-24T08:52:32;27.40;99.90
19348;DHT22;9810;52.480;9.806;2023-08-24T08:54:59;27.50;99.90
19348;DHT22;9810;52.480;9.806;2023-08-24T08:57:26;27.20;99.90
19348;DHT22;9810;52.480;9.806;2023-08-24T08:59:53;26.90;99.90
19348;DHT22;9810;52.480;9.806;2023-08-24T09:02:23;27.80;99.90
19348;DHT22;9810;52.480;9.806;2023-08-24T09:04:51;28.00;99.90
19348;DHT22;9810;52.480;9.806;2023-08-24T09:07:18;27.70;99.90
19348;DHT22;9810;52.480;9.806;2023-08-24T09:09:48;28.00;99.90
19348;DHT22;9810;52.480;9.806;2023-08-24T09:12:18;28.70;99.90
19348;DHT22;9810;52.480;9.806;2023-08-24T09:14:45;29.10;99.90
19348;DHT22;9810;52.480;9.806;2023-08-24T09:17:21;28.90;99.90
19348;DHT22;9810;52.480;9.806;2023-08-24T09:19:50;28.90;99.90
19348;DHT22;9810;52.480;9.806;2023-08-24T09:22:18;29.00;99.90
19348;DHT22;9810;52.480;9.806;2023-08-24T09:24:50;28.50;99.90
19348;DHT22;9810;52.480;9.806;2023-08-24T09:27:18;28.60;99.90
19348;DHT22;9810;52.480;9.806;2023-08-24T09:29:48;28.90;99.90
19348;DHT22;9810;52.480;9.806;2023-08-24T09:32:24;29.60;99.90
19348;DHT22;9810;52.480;9.806;2023-08-24T09:34:53;29.80;99.90
19348;DHT22;9810;52.480;9.806;2023-08-24T09:37:21;29.90;99.90
19348;DHT22;9810;52.480;9.806;2023-08-24T09:40:01;30.00;99.90
19348;DHT22;9810;52.480;9.806;2023-08-24T09:42:37;29.90;99.90
19348;DHT22;9810;52.480;9.806;2023-08-24T09:45:11;29.90;99.90
19348;DHT22;9810;52.480;9.806;2023-08-24T09:47:38;29.80;99.90
19348;DHT22;9810;52.480;9.806;2023-08-24T09:50:06;30.20;99.90
19348;DHT22;9810;52.480;9.806;2023-08-24T09:52:34;30.30;99.90
19348;DHT22;9810;52.480;9.806;2023-08-24T09:55:05;30.50;99.90
19348;DHT22;9810;52.480;9.806;2023-08-24T09:57:36;30.50;99.90
19348;DHT22;9810;52.480;9.806;2023-08-24T10:00:07;30.30;99.90
19348;DHT22;9810;52.480;9.806;2023-08-24T10:02:38;30.10;99.90
19348;DHT22;9810;52.480;9.806;2023-08-24T10:05:09;29.00;99.90
19348;DHT22;9810;52.480;9.806;2023-08-24T10:07:37;28.90;99.90
19348;DHT22;9810;52.480;9.806;2023-08-24T10:10:12;29.40;99.90
19348;DHT22;9810;52.480;9.806;2023-08-24T10:12:46;30.00;99.90
19348;DHT22;9810;52.480;9.806;2023-08-24T10:15:14;30.30;99.90
19348;DHT22;9810;52.480;9.806;2023-08-24T10:17:41;30.00;99.90
19348;DHT22;9810;52.480;9.806;2023-08-24T10:20:10;30.60;99.90
19348;DHT22;9810;52.480;9.806;2023-08-24T10:22:37;29.80;99.90
19348;DHT22;9810;52.480;9.806;2023-08-24T10:25:09;29.60;99.90
19348;DHT22;9810;52.480;9.806;2023-08-24T10:27:37;29.10;99.90
19348;DHT22;9810;52.480;9.806;2023-08-24T10:30:10;29.80;99.90
19348;DHT22;9810;52.480;9.806;2023-08-24T10:32:38;30.10;99.90
19348;DHT22;9810;52.480;9.806;2023-08-24T10:35:07;28.00;99.90
19348;DHT22;9810;52.480;9.806;2023-08-24T10:37:34;28.00;99.90
19348;DHT22;9810;52.480;9.806;2023-08-24T10:40:01;28.60;99.90
19348;DHT22;9810;52.480;9.806;2023-08-24T10:42:44;28.90;99.90
19348;DHT22;9810;52.480;9.806;2023-08-24T10:45:13;28.70;99.90
19348;DHT22;9810;52.480;9.806;2023-08-24T10:47:44;29.20;99.90
19348;DHT22;9810;52.480;9.806;2023-08-24T10:50:13;29.30;99.90
19348;DHT22;9810;52.480;9.806;2023-08-24T10:52:43;28.30;99.90
19348;DHT22;9810;52.480;9.806;2023-08-24T10:55:25;29.10;99.90
19348;DHT22;9810;52.480;9.806;2023-08-24T10:57:58;29.50;99.90
19348;DHT22;9810;52.480;9.806;2023-08-24T11:00:27;29.40;99.90
19348;DHT22;9810;52.480;9.806;2023-08-24T11:02:54;29.20;99.90
19348;DHT22;9810;52.480;9.806;2023-08-24T11:05:22;29.20;99.90
19348;DHT22;9810;52.480;9.806;2023-08-24T11:07:55;29.30;99.90
19348;DHT22;9810;52.480;9.806;2023-08-24T11:10:24;28.90;99.90
19348;DHT22;9810;52.480;9.806;2023-08-24T11:13:10;28.80;99.90
19348;DHT22;9810;52.480;9.806;2023-08-24T11:15:38;28.80;99.90
19348;DHT22;9810;52.480;9.806;2023-08-24T11:18:27;28.70;99.90
19348;DHT22;9810;52.480;9.806;2023-08-24T11:20:55;28.80;99.90
19348;DHT22;9810;52.480;9.806;2023-08-24T11:23:23;28.70;99.90
19348;DHT22;9810;52.480;9.806;2023-08-24T11:25:52;28.40;99.90
19348;DHT22;9810;52.480;9.806;2023-08-24T11:28:24;28.60;99.90
19348;DHT22;9810;52.480;9.806;2023-08-24T11:30:55;28.80;99.90
19348;DHT22;9810;52.480;9.806;2023-08-24T11:33:29;28.90;99.90
19348;DHT22;9810;52.480;9.806;2023-08-24T11:35:57;29.20;99.90
19348;DHT22;9810;52.480;9.806;2023-08-24T11:38:35;29.10;99.90
19348;DHT22;9810;52.480;9.806;2023-08-24T11:41:11;28.70;99.90
19348;DHT22;9810;52.480;9.806;2023-08-24T11:43:48;29.00;99.90
19348;DHT22;9810;52.480;9.806;2023-08-24T11:46:17;29.10;99.90
19348;DHT22;9810;52.480;9.806;2023-08-24T11:48:45;28.90;99.90
19348;DHT22;9810;52.480;9.806;2023-08-24T11:51:13;28.00;99.90
19348;DHT22;9810;52.480;9.806;2023-08-24T11:53:41;28.10;99.90
19348;DHT22;9810;52.480;9.806;2023-08-24T11:56:10;28.30;99.90
19348;DHT22;9810;52.480;9.806;2023-08-24T11:58:38;28.00;99.90
19348;DHT22;9810;52.480;9.806;2023-08-24T12:01:08;28.40;99.90
19348;DHT22;9810;52.480;9.806;2023-08-24T12:03:36;28.00;99.90
19348;DHT22;9810;52.480;9.806;2023-08-24T12:06:10;28.10;99.90
19348;DHT22;9810;52.480;9.806;2023-08-24T12:08:39;28.00;99.90
19348;DHT22;9810;52.480;9.806;2023-08-24T12:11:11;27.80;99.90
19348;DHT22;9810;52.480;9.806;2023-08-24T12:13:43;27.80;99.90
19348;DHT22;9810;52.480;9.806;2023-08-24T12:16:13;27.40;99.90
19348;DHT22;9810;52.480;9.806;2023-08-24T12:18:51;27.60;99.90
19348;DHT22;9810;52.480;9.806;2023-08-24T12:21:19;28.00;99.90
19348;DHT22;9810;52.480;9.806;2023-08-24T12:23:55;27.70;99.90
19348;DHT22;9810;52.480;9.806;2023-08-24T12:26:22;27.50;99.90
19348;DHT22;9810;52.480;9.806;2023-08-24T12:28:50;27.40;99.90
19348;DHT22;9810;52.480;9.806;2023-08-24T12:31:26;27.70;99.90
19348;DHT22;9810;52.480;9.806;2023-08-24T12:34:01;27.80;99.90
19348;DHT22;9810;52.480;9.806;2023-08-24T12:36:32;27.70;99.90
19348;DHT22;9810;52.480;9.806;2023-08-24T12:39:01;27.60;99.90
19348;DHT22;9810;52.480;9.806;2023-08-24T12:41:29;27.80;99.90
19348;DHT22;9810;52.480;9.806;2023-08-24T12:43:56;27.70;99.90
19348;DHT22;9810;52.480;9.806;2023-08-24T12:46:32;27.90;99.90
19348;DHT22;9810;52.480;9.806;2023-08-24T12:48:59;27.60;99.90
19348;DHT22;9810;52.480;9.806;2023-08-24T12:51:26;27.70;99.90
19348;DHT22;9810;52.480;9.806;2023-08-24T12:53:53;27.60;99.90
19348;DHT22;9810;52.480;9.806;2023-08-24T12:56:20;27.70;99.90
19348;DHT22;9810;52.480;9.806;2023-08-24T12:58:48;27.70;99.90
19348;DHT22;9810;52.480;9.806;2023-08-24T13:01:17;27.80;99.90
19348;DHT22;9810;52.480;9.806;2023-08-24T13:03:45;27.90;99.90
19348;DHT22;9810;52.480;9.806;2023-08-24T13:06:12;27.60;99.90
19348;DHT22;9810;52.480;9.806;2023-08-24T13:08:40;27.50;99.90
19348;DHT22;9810;52.480;9.806;2023-08-24T13:11:11;27.80;99.90
19348;DHT22;9810;52.480;9.806;2023-08-24T13:13:40;27.90;99.90
19348;DHT22;9810;52.480;9.806;2023-08-24T13:16:07;28.00;99.90
19348;DHT22;9810;52.480;9.806;2023-08-24T13:18:34;28.30;99.90
19348;DHT22;9810;52.480;9.806;2023-08-24T13:21:03;28.40;99.90
19348;DHT22;9810;52.480;9.806;2023-08-24T13:23:30;28.40;99.90
19348;DHT22;9810;52.480;9.806;2023-08-24T13:25:57;28.20;99.90
19348;DHT22;9810;52.480;9.806;2023-08-24T13:28:24;27.70;99.90
19348;DHT22;9810;52.480;9.806;2023-08-24T13:30:51;28.10;99.90
19348;DHT22;9810;52.480;9.806;2023-08-24T13:33:18;28.10;99.90
19348;DHT22;9810;52.480;9.806;2023-08-24T13:35:45;28.20;99.90
19348;DHT22;9810;52.480;9.806;2023-08-24T13:38:14;27.80;99.90
19348;DHT22;9810;52.480;9.806;2023-08-24T13:40:41;27.90;99.90
19348;DHT22;9810;52.480;9.806;2023-08-24T13:43:08;28.00;99.90
19348;DHT22;9810;52.480;9.806;2023-08-24T13:45:38;28.10;99.90
19348;DHT22;9810;52.480;9.806;2023-08-24T13:48:05;28.10;99.90
19348;DHT22;9810;52.480;9.806;2023-08-24T13:50:33;27.90;99.90
19348;DHT22;9810;52.480;9.806;2023-08-24T13:53:00;28.20;99.90
19348;DHT22;9810;52.480;9.806;2023-08-24T13:55:29;28.20;99.90
19348;DHT22;9810;52.480;9.806;2023-08-24T13:57:58;28.30;99.90
19348;DHT22;9810;52.480;9.806;2023-08-24T14:00:25;28.20;99.90
19348;DHT22;9810;52.480;9.806;2023-08-24T14:02:52;27.80;99.90
19348;DHT22;9810;52.480;9.806;2023-08-24T14:05:19;27.80;99.90
19348;DHT22;9810;52.480;9.806;2023-08-24T14:07:49;27.70;99.90
19348;DHT22;9810;52.480;9.806;2023-08-24T14:10:16;27.50;99.90
19348;DHT22;9810;52.480;9.806;2023-08-24T14:12:46;27.50;99.90
19348;DHT22;9810;52.480;9.806;2023-08-24T14:15:13;27.50;99.90
19348;DHT22;9810;52.480;9.806;2023-08-24T14:17:40;27.30;99.90
19348;DHT22;9810;52.480;9.806;2023-08-24T14:20:08;27.20;99.90
19348;DHT22;9810;52.480;9.806;2023-08-24T14:22:35;27.20;99.90
19348;DHT22;9810;52.480;9.806;2023-08-24T14:25:03;27.20;99.90
19348;DHT22;9810;52.480;9.806;2023-08-24T14:27:32;27.20;99.90
19348;DHT22;9810;52.480;9.806;2023-08-24T14:30:00;27.20;99.90
19348;DHT22;9810;52.480;9.806;2023-08-24T14:32:30;27.20;99.90
19348;DHT22;9810;52.480;9.806;2023-08-24T14:34:58;27.20;99.90
19348;DHT22;9810;52.480;9.806;2023-08-24T14:37:26;27.20;99.90
19348;DHT22;9810;52.480;9.806;2023-08-24T14:39:52;27.30;99.90
19348;DHT22;9810;52.480;9.806;2023-08-24T14:42:19;27.20;99.90
19348;DHT22;9810;52.480;9.806;2023-08-24T14:44:46;27.10;99.90
19348;DHT22;9810;52.480;9.806;2023-08-24T14:47:15;27.10;99.90
19348;DHT22;9810;52.480;9.806;2023-08-24T14:49:42;27.20;99.90
19348;DHT22;9810;52.480;9.806;2023-08-24T14:52:12;27.20;99.90
19348;DHT22;9810;52.480;9.806;2023-08-24T14:54:39;27.30;99.90
19348;DHT22;9810;52.480;9.806;2023-08-24T14:57:06;27.20;99.90
19348;DHT22;9810;52.480;9.806;2023-08-24T14:59:34;27.20;99.90
19348;DHT22;9810;52.480;9.806;2023-08-24T15:02:02;27.10;99.90
19348;DHT22;9810;52.480;9.806;2023-08-24T15:04:31;27.10;99.90
19348;DHT22;9810;52.480;9.806;2023-08-24T15:06:58;27.00;99.90
19348;DHT22;9810;52.480;9.806;2023-08-24T15:09:25;27.10;99.90
19348;DHT22;9810;52.480;9.806;2023-08-24T15:11:55;27.20;99.90
19348;DHT22;9810;52.480;9.806;2023-08-24T15:14:22;27.20;99.90
19348;DHT22;9810;52.480;9.806;2023-08-24T15:16:50;27.10;99.90
19348;DHT22;9810;52.480;9.806;2023-08-24T15:19:17;27.20;99.90
19348;DHT22;9810;52.480;9.806;2023-08-24T15:21:45;27.20;99.90
19348;DHT22;9810;52.480;9.806;2023-08-24T15:24:12;27.10;99.90
19348;DHT22;9810;52.480;9.806;2023-08-24T15:26:39;27.00;99.90
19348;DHT22;9810;52.480;9.806;2023-08-24T15:29:11;27.00;99.90
19348;DHT22;9810;52.480;9.806;2023-08-24T15:31:39;27.00;99.90
19348;DHT22;9810;52.480;9.806;2023-08-24T15:34:08;26.90;99.90
19348;DHT22;9810;52.480;9.806;2023-08-24T15:36:37;26.90;99.90
19348;DHT22;9810;52.480;9.806;2023-08-24T15:39:09;26.80;99.90
19348;DHT22;9810;52.480;9.806;2023-08-24T15:41:38;26.80;99.90
19348;DHT22;9810;52.480;9.806;2023-08-24T15:44:05;26.70;99.90
19348;DHT22;9810;52.480;9.806;2023-08-24T15:46:32;26.70;99.90
19348;DHT22;9810;52.480;9.806;2023-08-24T15:48:59;26.60;99.90
19348;DHT22;9810;52.480;9.806;2023-08-24T15:51:26;26.60;99.90
19348;DHT22;9810;52.480;9.806;2023-08-24T15:53:54;26.50;99.90